Time;durP1;ratioP1;P1;durP2;ratioP2;P2;SDS_P1;SDS_P2;PMS_P1;PMS_P2;Temp;Humidity;BMP_temperature;BMP_pressure;BME280_temperature;BME280_humidity;BME280_pressure;Samples;Min_cycle;Max_cycle;Signal;HPM_P1;HPM_P2
2021/05/25 00:00:37;;;;;;;2.45;1.30;;;;;;;19.62;42.51;100677.00;4176588;28;20029;-42
2021/05/25 00:02:38;;;;;;;2.75;1.38;;;;;;;19.58;42.47;100681.47;4177903;28;20495;-41
2021/05/25 00:04:38;;;;;;;2.55;1.10;;;;;;;19.62;42.36;100687.28;4177369;28;20104;-41
2021/05/25 00:06:39;;;;;;;3.45;1.40;;;;;;;19.45;42.57;100673.78;4177164;28;20556;-41
2021/05/25 00:08:39;;;;;;;6.05;2.20;;;;;;;19.49;42.59;100685.97;4177832;28;20033;-41
2021/05/25 00:10:40;;;;;;;3.00;1.65;;;;;;;19.46;42.40;100673.50;4177436;28;20052;-41
2021/05/25 00:12:42;;;;;;;5.20;1.50;;;;;;;19.50;42.24;100696.78;4175995;28;20033;-41
2021/05/25 00:14:42;;;;;;;5.10;1.60;;;;;;;19.45;42.35;100674.63;4178143;28;20029;-42
2021/05/25 00:16:43;;;;;;;2.03;1.20;;;;;;;19.44;42.43;100689.59;4177609;28;20032;-42
2021/05/25 00:18:43;;;;;;;1.67;1.02;;;;;;;19.17;42.66;100654.81;4177039;28;20052;-41
2021/05/25 00:20:43;;;;;;;2.00;1.48;;;;;;;19.23;42.58;100681.41;4177715;28;20037;-42
2021/05/25 00:22:44;;;;;;;2.53;1.30;;;;;;;19.41;42.40;100684.63;4174886;28;20045;-42
2021/05/25 00:24:44;;;;;;;2.58;1.10;;;;;;;19.32;42.37;100681.63;4174786;28;20068;-43
2021/05/25 00:26:45;;;;;;;2.85;1.60;;;;;;;19.46;42.13;100679.03;4177394;28;20033;-42
2021/05/25 00:28:45;;;;;;;3.10;1.70;;;;;;;19.35;42.25;100674.69;4176094;28;20047;-42
2021/05/25 00:30:47;;;;;;;2.60;1.75;;;;;;;19.45;41.86;100665.44;4160893;28;20039;-44
2021/05/25 00:32:48;;;;;;;2.50;1.75;;;;;;;19.29;41.99;100657.22;4177860;28;20043;-42
2021/05/25 00:34:48;;;;;;;1.85;1.13;;;;;;;19.45;41.91;100666.31;4178117;28;20087;-44
2021/05/25 00:36:49;;;;;;;4.32;1.83;;;;;;;19.29;41.99;100679.41;4175377;28;20029;-42
2021/05/25 00:38:49;;;;;;;2.67;1.38;;;;;;;19.14;42.24;100666.47;4179563;28;20037;-42
2021/05/25 00:40:49;;;;;;;2.17;1.48;;;;;;;19.34;42.02;100675.78;4177772;28;20069;-42
2021/05/25 00:42:50;;;;;;;3.70;1.60;;;;;;;19.20;42.05;100675.59;4175539;28;20037;-42
2021/05/25 00:44:50;;;;;;;3.78;1.55;;;;;;;19.29;41.78;100667.50;4177817;28;20048;-42
2021/05/25 00:46:52;;;;;;;1.50;1.17;;;;;;;19.17;42.09;100668.69;4176662;28;20025;-43
2021/05/25 00:48:52;;;;;;;2.35;1.70;;;;;;;19.10;42.38;100672.88;4176518;28;20058;-42
2021/05/25 00:50:55;;;;;;;1.60;1.25;;;;;;;19.10;42.16;100672.88;4175627;28;20041;-41
2021/05/25 00:52:58;;;;;;;2.22;1.25;;;;;;;19.18;41.76;100666.72;4176844;28;20151;-41
2021/05/25 00:54:58;;;;;;;2.85;1.20;;;;;;;19.18;41.96;100670.31;4179075;28;20078;-41
2021/05/25 00:56:59;;;;;;;2.45;1.38;;;;;;;19.10;41.94;100670.94;4176709;28;20451;-41
2021/05/25 00:59:00;;;;;;;1.65;1.30;;;;;;;19.17;41.91;100673.38;4176319;28;20063;-42
2021/05/25 01:01:01;;;;;;;1.60;1.38;;;;;;;18.95;42.27;100676.50;4176405;28;20067;-41
2021/05/25 01:03:02;;;;;;;2.47;1.40;;;;;;;19.09;41.88;100669.25;4177534;28;20047;-41
2021/05/25 01:05:04;;;;;;;1.95;1.23;;;;;;;19.14;41.73;100666.47;4174849;28;20032;-41
2021/05/25 01:07:04;;;;;;;2.22;1.60;;;;;;;19.07;41.72;100668.69;4177130;28;20029;-41
2021/05/25 01:09:05;;;;;;;1.65;1.20;;;;;;;19.00;41.58;100663.47;4175893;28;20032;-41
2021/05/25 01:11:07;;;;;;;1.60;0.90;;;;;;;19.21;41.35;100680.84;4174954;28;20506;-42
2021/05/25 01:13:27;;;;;;;1.20;0.82;;;;;;;19.11;41.51;100678.16;4185003;28;20044;-41
2021/05/25 01:15:28;;;;;;;2.13;1.23;;;;;;;19.17;41.08;100677.00;4177799;28;20032;-41
2021/05/25 01:17:28;;;;;;;2.60;1.10;;;;;;;19.12;41.33;100679.78;4177372;28;20040;-41
2021/05/25 01:19:29;;;;;;;1.92;1.20;;;;;;;19.12;41.50;100679.78;4176482;28;20029;-41
2021/05/25 01:21:29;;;;;;;2.15;1.05;;;;;;;19.01;41.39;100680.91;4175281;28;20045;-41
2021/05/25 01:23:31;;;;;;;2.60;1.40;;;;;;;19.03;41.32;100679.53;4177004;28;20454;-42
2021/05/25 01:25:32;;;;;;;1.80;1.17;;;;;;;18.94;41.50;100692.34;4177265;28;20037;-41
2021/05/25 01:27:32;;;;;;;1.67;1.20;;;;;;;19.08;41.18;100681.47;4179416;28;20503;-41
2021/05/25 01:29:35;;;;;;;1.58;1.08;;;;;;;19.05;41.34;100682.84;4176683;28;20549;-41
2021/05/25 01:31:35;;;;;;;1.95;1.27;;;;;;;18.91;41.34;100679.03;4175710;28;20137;-41
2021/05/25 01:33:37;;;;;;;2.80;1.40;;;;;;;19.10;41.00;100682.03;4177083;28;20083;-42
2021/05/25 01:35:38;;;;;;;1.75;1.15;;;;;;;18.97;41.27;100675.13;4175161;28;20052;-42
2021/05/25 01:37:38;;;;;;;1.65;1.08;;;;;;;18.72;41.16;100667.72;4176410;28;20587;-42
2021/05/25 01:39:39;;;;;;;2.08;1.00;;;;;;;18.84;41.14;100668.22;4176372;28;20397;-41
2021/05/25 01:41:39;;;;;;;1.60;1.00;;;;;;;19.03;41.12;100678.69;4175373;28;20167;-42
2021/05/25 01:43:40;;;;;;;1.00;0.70;;;;;;;18.98;40.94;100682.31;4178101;28;20086;-42
2021/05/25 01:45:41;;;;;;;1.30;0.90;;;;;;;18.93;40.92;100687.88;4175137;28;20033;-42
2021/05/25 01:47:42;;;;;;;5.22;0.80;;;;;;;18.93;40.83;100685.13;4174910;28;20039;-43
2021/05/25 01:49:42;;;;;;;2.20;1.15;;;;;;;18.84;41.03;100678.50;4177077;28;20198;-47
2021/05/25 01:51:51;;;;;;;2.25;1.10;;;;;;;18.98;40.76;100687.03;4174484;28;20549;-43
2021/05/25 01:53:52;;;;;;;1.45;0.88;;;;;;;18.94;40.80;100691.47;4175804;28;20446;-44
2021/05/25 01:55:54;;;;;;;1.90;0.88;;;;;;;18.94;40.67;100683.16;4176341;28;20037;-42
2021/05/25 01:58:01;;;;;;;1.48;0.90;;;;;;;18.88;40.86;100685.16;4173462;28;20040;-41
2021/05/25 02:00:04;;;;;;;1.58;0.90;;;;;;;18.94;40.54;100684.00;4181474;28;20489;-42
2021/05/25 02:02:04;;;;;;;1.63;0.88;;;;;;;18.77;40.81;100686.28;4175089;28;20086;-42
2021/05/25 02:04:05;;;;;;;1.13;0.90;;;;;;;18.78;40.75;100691.53;4176043;28;20394;-42
2021/05/25 02:06:07;;;;;;;2.53;1.20;;;;;;;18.78;40.86;100685.16;4176198;28;20037;-42
2021/05/25 02:08:08;;;;;;;1.35;1.20;;;;;;;18.76;40.86;100692.94;4175884;28;20033;-41
2021/05/25 02:10:09;;;;;;;1.52;1.08;;;;;;;18.77;40.67;100691.81;4174919;28;20124;-41
2021/05/25 02:12:15;;;;;;;1.33;0.77;;;;;;;18.74;40.62;100693.22;4175667;28;20590;-41
2021/05/25 02:14:15;;;;;;;2.03;0.73;;;;;;;18.80;40.69;100689.34;4174635;28;20034;-42
2021/05/25 02:16:18;;;;;;;1.90;1.02;;;;;;;18.64;40.80;100696.84;4158234;28;20042;-42
2021/05/25 02:18:23;;;;;;;1.95;0.90;;;;;;;18.68;40.78;100694.34;4175762;28;20029;-41
2021/05/25 02:20:24;;;;;;;1.02;0.70;;;;;;;18.70;40.55;100689.34;4175226;28;20036;-43
2021/05/25 02:22:24;;;;;;;0.95;0.82;;;;;;;18.67;40.67;100695.47;4175247;28;20090;-42
2021/05/25 02:24:25;;;;;;;1.42;1.05;;;;;;;18.70;40.46;100703.22;4172624;28;20578;-42
2021/05/25 02:26:25;;;;;;;2.33;0.90;;;;;;;18.64;40.86;100696.03;4176139;28;20099;-42
2021/05/25 02:28:26;;;;;;;2.10;1.02;;;;;;;18.47;41.04;100682.47;4174572;28;20075;-42
2021/05/25 02:30:28;;;;;;;1.60;0.90;;;;;;;18.63;40.86;100697.13;4174121;28;20033;-44
2021/05/25 02:32:28;;;;;;;1.15;0.60;;;;;;;18.66;40.68;100702.09;4177696;28;20812;-43
2021/05/25 02:34:29;;;;;;;2.13;0.90;;;;;;;18.61;40.67;100694.63;4174980;28;20032;-43
2021/05/25 02:36:29;;;;;;;0.98;0.70;;;;;;;18.53;40.27;100684.94;4157528;28;20036;-42
2021/05/25 02:38:31;;;;;;;1.60;0.73;;;;;;;18.58;40.70;100711.81;4159281;28;20040;-45
2021/05/25 02:40:31;;;;;;;1.08;0.85;;;;;;;18.59;40.59;100704.38;4174717;28;20075;-43
2021/05/25 02:42:32;;;;;;;1.25;0.70;;;;;;;18.57;40.79;100703.78;4158570;28;20507;-42
2021/05/25 02:44:32;;;;;;;1.33;1.00;;;;;;;18.55;40.76;100709.63;4175384;28;20105;-42
2021/05/25 02:46:33;;;;;;;2.00;1.17;;;;;;;18.57;40.62;100704.63;4173733;28;20037;-41
2021/05/25 02:48:33;;;;;;;1.70;1.10;;;;;;;18.60;40.59;100714.31;4175442;28;20036;-42
2021/05/25 02:50:34;;;;;;;2.05;1.00;;;;;;;18.53;40.71;100712.66;4175721;28;20518;-43
2021/05/25 02:52:45;;;;;;;0.90;0.70;;;;;;;18.54;40.41;100710.75;4174349;28;20478;-42
2021/05/25 02:54:46;;;;;;;1.38;0.93;;;;;;;18.49;40.54;100697.72;4174884;28;20049;-43
2021/05/25 02:56:46;;;;;;;1.15;0.85;;;;;;;18.46;40.62;100695.50;4173554;28;20036;-43
2021/05/25 02:58:47;;;;;;;1.20;0.70;;;;;;;18.44;40.71;100707.97;4175040;28;20052;-42
2021/05/25 03:00:48;;;;;;;0.93;0.68;;;;;;;18.51;40.46;100712.13;4174474;28;20098;-42
2021/05/25 03:02:51;;;;;;;0.88;0.50;;;;;;;18.47;40.50;100711.00;4175589;28;20037;-42
2021/05/25 03:04:51;;;;;;;0.68;0.50;;;;;;;18.44;40.72;100710.75;4176966;28;20083;-42
2021/05/25 03:06:52;;;;;;;0.93;0.65;;;;;;;18.42;40.72;100710.22;4174860;28;20438;-42
2021/05/25 03:08:53;;;;;;;0.75;0.60;;;;;;;18.42;40.60;100711.03;4175839;28;20167;-42
2021/05/25 03:10:53;;;;;;;1.15;1.00;;;;;;;18.40;40.45;100713.25;4175596;28;20036;-42
2021/05/25 03:12:55;;;;;;;0.70;0.60;;;;;;;18.43;40.29;100711.84;4174753;28;20032;-42
2021/05/25 03:14:55;;;;;;;1.20;0.68;;;;;;;18.35;40.50;100711.31;4175025;28;20028;-41
2021/05/25 03:16:56;;;;;;;1.05;0.90;;;;;;;18.43;40.56;100715.47;4174779;28;20037;-41
2021/05/25 03:18:56;;;;;;;2.08;0.85;;;;;;;18.46;40.41;100720.47;4175500;28;20047;-42
2021/05/25 03:20:57;;;;;;;0.75;0.75;;;;;;;18.39;40.45;100717.13;4177832;28;20178;-42
2021/05/25 03:22:57;;;;;;;1.63;0.82;;;;;;;18.40;40.15;100731.81;4172743;28;20032;-41
2021/05/25 03:24:58;;;;;;;0.47;0.47;;;;;;;18.40;40.24;100726.25;4173895;28;20041;-42
2021/05/25 03:26:58;;;;;;;2.67;0.90;;;;;;;;;;4177244;28;20037;-41
2021/05/25 03:28:59;;;;;;;1.45;0.63;;;;;;;18.26;40.49;100723.19;4177499;28;21661;-41
2021/05/25 03:30:59;;;;;;;0.70;0.70;;;;;;;18.35;40.51;100736.28;4179789;28;20075;-41
2021/05/25 03:33:00;;;;;;;1.30;0.77;;;;;;;18.44;40.26;100730.16;4177368;28;20087;-41
2021/05/25 03:35:00;;;;;;;1.10;0.70;;;;;;;18.42;40.41;100737.94;4178953;28;20053;-41
2021/05/25 03:37:01;;;;;;;1.70;0.70;;;;;;;18.40;40.20;100743.75;4178797;28;20040;-41
2021/05/25 03:39:02;;;;;;;1.45;0.70;;;;;;;18.34;40.08;100739.31;4177038;28;20047;-41
2021/05/25 03:41:03;;;;;;;1.02;0.68;;;;;;;18.24;40.38;100740.09;4177466;28;20033;-41
2021/05/25 03:43:03;;;;;;;2.00;0.80;;;;;;;18.11;40.65;100730.41;4177944;28;20037;-41
2021/05/25 03:45:05;;;;;;;1.00;0.80;;;;;;;18.30;40.36;100747.34;4175911;28;20033;-41
2021/05/25 03:47:06;;;;;;;1.67;0.68;;;;;;;18.18;40.35;100725.44;4178464;28;20060;-41
2021/05/25 03:49:06;;;;;;;0.70;0.70;;;;;;;18.23;40.41;100748.69;4177738;28;20040;-41
2021/05/25 03:51:07;;;;;;;1.27;0.80;;;;;;;18.21;40.61;100750.91;4178411;28;20082;-41
2021/05/25 03:53:07;;;;;;;0.75;0.57;;;;;;;18.18;40.38;100749.53;4178179;28;20391;-42
2021/05/25 03:55:36;;;;;;;1.23;0.85;;;;;;;18.28;40.27;100754.25;4177823;28;20044;-41
2021/05/25 03:59:36;;;;;;;1.30;0.52;;;;;;;18.12;40.60;100748.69;4177349;28;20037;-41
2021/05/25 04:01:37;;;;;;;0.77;0.77;;;;;;;18.13;40.64;100750.34;4175383;28;20044;-41
2021/05/25 04:03:37;;;;;;;0.85;0.68;;;;;;;18.17;40.53;100757.00;4178420;28;20785;-41
2021/05/25 04:05:38;;;;;;;0.40;0.40;;;;;;;18.07;40.30;100754.22;4176280;28;20533;-41
2021/05/25 04:07:38;;;;;;;1.52;0.73;;;;;;;18.06;40.22;100760.03;4178441;28;20036;-41
2021/05/25 04:09:39;;;;;;;1.35;0.60;;;;;;;18.03;40.51;100746.75;4177353;28;20545;-41
2021/05/25 04:11:39;;;;;;;1.98;0.98;;;;;;;18.12;40.23;100751.47;4176860;28;20032;-41
2021/05/25 04:13:40;;;;;;;1.40;0.90;;;;;;;17.92;40.43;100749.53;4178103;28;20659;-41
2021/05/25 04:15:47;;;;;;;1.23;0.88;;;;;;;17.98;40.39;100747.56;4176121;28;20487;-41
2021/05/25 04:17:49;;;;;;;1.65;0.88;;;;;;;17.91;40.11;100731.22;4177497;28;20060;-41
2021/05/25 04:19:49;;;;;;;2.03;0.80;;;;;;;18.04;40.05;100754.78;4182384;28;20124;-41
2021/05/25 04:21:49;;;;;;;1.00;0.63;;;;;;;18.07;40.09;100754.22;4176606;28;20033;-41
2021/05/25 04:23:50;;;;;;;1.13;0.70;;;;;;;18.01;40.42;100749.78;4178661;28;20498;-41
2021/05/25 04:25:50;;;;;;;0.57;0.57;;;;;;;18.04;40.20;100765.84;4177463;28;20546;-42
2021/05/25 04:27:51;;;;;;;0.82;0.77;;;;;;;17.96;40.31;100755.31;4176579;28;20033;-42
2021/05/25 04:29:52;;;;;;;1.15;0.82;;;;;;;17.95;40.38;100750.88;4177888;28;20495;-41
2021/05/25 04:31:52;;;;;;;2.30;0.70;;;;;;;17.90;40.19;100748.13;4176159;28;20414;-42
2021/05/25 04:33:52;;;;;;;1.23;0.90;;;;;;;17.88;40.50;100756.69;4176163;28;20037;-42
2021/05/25 04:35:53;;;;;;;1.35;1.00;;;;;;;17.81;40.63;100762.50;4177399;28;20052;-42
2021/05/25 04:37:56;;;;;;;1.48;0.85;;;;;;;17.85;40.25;100748.13;4176378;28;20037;-42
2021/05/25 04:39:56;;;;;;;2.03;0.80;;;;;;;17.93;40.11;100764.19;4158036;28;20452;-42
2021/05/25 04:41:56;;;;;;;1.10;0.95;;;;;;;17.86;40.21;100767.22;4177354;28;20033;-42
2021/05/25 04:43:57;;;;;;;1.15;1.00;;;;;;;17.80;40.54;100766.38;4174496;28;20037;-42
2021/05/25 04:45:57;;;;;;;2.03;0.98;;;;;;;17.83;40.35;100770.53;4174709;28;20036;-42
2021/05/25 04:47:58;;;;;;;1.02;0.70;;;;;;;17.88;40.04;100772.50;4176063;28;20048;-41
2021/05/25 04:49:58;;;;;;;1.35;0.80;;;;;;;17.72;40.43;100778.00;4175460;28;20037;-41
2021/05/25 04:51:59;;;;;;;2.80;0.80;;;;;;;17.73;40.49;100774.09;4179068;28;20087;-42
2021/05/25 04:54:00;;;;;;;2.40;0.70;;;;;;;17.70;40.50;100780.19;4176300;28;20771;-43
2021/05/25 04:56:00;;;;;;;1.63;0.68;;;;;;;17.72;40.13;100772.47;4177495;28;20037;-42
2021/05/25 04:58:01;;;;;;;1.20;0.70;;;;;;;17.72;40.25;100779.91;4175635;28;20136;-42
2021/05/25 05:00:04;;;;;;;1.58;0.93;;;;;;;17.70;40.43;100785.72;4176804;28;20033;-41
2021/05/25 05:02:05;;;;;;;1.05;0.85;;;;;;;17.73;40.22;100774.09;4176742;28;20033;-41
2021/05/25 05:04:05;;;;;;;2.13;0.82;;;;;;;17.76;40.40;100781.03;4159635;28;20030;-42
2021/05/25 05:06:06;;;;;;;0.80;0.80;;;;;;;17.72;39.97;100786.31;4176833;28;20088;-42
2021/05/25 05:08:07;;;;;;;1.73;0.90;;;;;;;17.61;40.07;100774.38;4177618;28;20482;-42
2021/05/25 05:10:08;;;;;;;1.17;0.75;;;;;;;17.65;40.31;100780.19;4176275;28;20045;-42
2021/05/25 05:12:09;;;;;;;2.03;0.90;;;;;;;17.70;40.31;100780.19;4177770;28;20037;-42
2021/05/25 05:14:09;;;;;;;1.63;0.70;;;;;;;17.59;40.19;100779.31;4181207;28;20029;-42
2021/05/25 05:16:12;;;;;;;2.35;1.00;;;;;;;17.74;39.94;100780.50;4177188;28;20033;-42
2021/05/25 05:18:12;;;;;;;1.10;0.70;;;;;;;17.65;40.47;100777.41;4177271;28;20025;-42
2021/05/25 05:20:13;;;;;;;1.70;0.85;;;;;;;17.64;40.25;100784.03;4176729;28;20036;-42
2021/05/25 05:22:14;;;;;;;1.52;0.90;;;;;;;17.77;40.23;100783.53;4175537;28;20047;-42
2021/05/25 05:24:14;;;;;;;0.65;0.65;;;;;;;17.61;40.28;100779.91;4178270;28;21600;-42
2021/05/25 05:26:15;;;;;;;1.10;0.75;;;;;;;17.63;40.13;100771.31;4175255;28;20057;-43
2021/05/25 05:28:15;;;;;;;1.45;0.70;;;;;;;17.62;40.04;100764.13;4176825;28;20029;-44
2021/05/25 05:30:16;;;;;;;1.55;0.80;;;;;;;17.64;40.31;100781.28;4178160;28;20059;-42
2021/05/25 05:32:18;;;;;;;1.58;1.30;;;;;;;17.62;40.35;100789.03;4176331;28;20040;-42
2021/05/25 05:34:19;;;;;;;1.90;0.80;;;;;;;17.64;40.30;100790.44;4173576;28;20364;-41
2021/05/25 05:36:19;;;;;;;1.40;0.85;;;;;;;17.65;40.40;100791.25;4174476;28;20066;-41
2021/05/25 05:38:20;;;;;;;1.23;0.95;;;;;;;17.66;40.10;100792.94;4176637;28;20025;-42
2021/05/25 05:40:20;;;;;;;1.35;1.05;;;;;;;17.63;40.28;100797.06;4178556;28;20494;-41
2021/05/25 05:42:21;;;;;;;1.33;0.82;;;;;;;17.61;40.11;100793.75;4175645;28;20032;-41
2021/05/25 05:44:21;;;;;;;2.03;1.13;;;;;;;17.66;40.17;100801.22;4176011;28;20041;-41
2021/05/25 05:46:22;;;;;;;1.95;0.90;;;;;;;17.63;40.28;100805.38;4176082;28;20029;-41
2021/05/25 05:48:22;;;;;;;2.22;1.00;;;;;;;17.61;40.15;100806.72;4176454;28;20051;-41
2021/05/25 05:50:23;;;;;;;1.40;0.82;;;;;;;17.66;40.18;100805.91;4175393;28;20068;-41
2021/05/25 05:52:23;;;;;;;1.30;1.05;;;;;;;17.63;40.13;100810.91;4175727;28;20068;-41
2021/05/25 05:54:24;;;;;;;1.98;1.08;;;;;;;17.66;40.26;100808.69;4174246;28;20107;-41
2021/05/25 05:56:25;;;;;;;2.55;1.10;;;;;;;17.61;40.28;100812.25;4176200;28;20376;-41
2021/05/25 05:58:25;;;;;;;2.55;1.10;;;;;;;17.58;40.37;100812.81;4175053;28;20532;-41
2021/05/25 06:00:26;;;;;;;1.92;1.20;;;;;;;17.61;40.34;100810.34;4178022;28;20051;-41
2021/05/25 06:02:26;;;;;;;0.90;0.70;;;;;;;17.61;40.07;100803.97;4175231;28;20068;-41
2021/05/25 06:04:27;;;;;;;1.20;0.90;;;;;;;17.58;40.21;100807.28;4176320;28;20136;-41
2021/05/25 06:06:27;;;;;;;1.15;0.68;;;;;;;17.59;39.94;100822.78;4176548;28;20051;-41
2021/05/25 06:08:28;;;;;;;1.30;1.20;;;;;;;17.56;40.07;100799.25;4175079;28;20145;-42
2021/05/25 06:10:30;;;;;;;0.80;0.80;;;;;;;17.56;40.37;100815.84;4174915;28;20037;-41
2021/05/25 06:12:30;;;;;;;1.70;0.98;;;;;;;17.62;40.01;100825.00;4176707;28;20033;-41
2021/05/25 06:14:31;;;;;;;2.28;1.00;;;;;;;17.56;40.42;100821.38;4174189;28;20044;-41
2021/05/25 06:16:32;;;;;;;1.90;0.85;;;;;;;17.55;40.51;100821.66;4173890;28;20498;-41
2021/05/25 06:18:34;;;;;;;1.40;0.80;;;;;;;17.58;40.01;100829.41;4174889;28;20115;-42
2021/05/25 06:20:34;;;;;;;1.10;0.70;;;;;;;17.63;40.37;100821.16;4175646;28;20039;-41
2021/05/25 06:22:35;;;;;;;1.15;0.75;;;;;;;17.61;40.13;100824.19;4179127;28;20037;-41
2021/05/25 06:24:35;;;;;;;1.05;0.70;;;;;;;17.67;39.82;100827.78;4174940;28;20461;-41
2021/05/25 06:26:36;;;;;;;1.63;0.60;;;;;;;17.57;40.20;100834.13;4175983;28;20068;-41
2021/05/25 06:28:36;;;;;;;1.17;0.60;;;;;;;17.56;40.58;100832.44;4175588;28;20090;-42
2021/05/25 06:30:37;;;;;;;1.20;0.85;;;;;;;17.62;39.99;100830.53;4174387;28;20027;-42
2021/05/25 06:32:38;;;;;;;1.73;0.60;;;;;;;17.59;40.41;100837.44;4180792;28;20040;-42
2021/05/25 06:34:39;;;;;;;1.30;0.63;;;;;;;17.65;40.00;100838.31;4173698;28;20041;-42
2021/05/25 06:36:39;;;;;;;1.17;0.50;;;;;;;17.55;39.96;100822.50;4175512;28;20037;-42
2021/05/25 06:38:40;;;;;;;2.22;0.90;;;;;;;17.52;40.18;100833.25;4175336;28;20487;-43
2021/05/25 06:40:40;;;;;;;0.73;0.73;;;;;;;17.49;40.48;100831.00;4173363;28;20086;-44
2021/05/25 06:42:41;;;;;;;1.13;0.88;;;;;;;17.55;40.42;100849.31;4174981;28;20036;-42
2021/05/25 06:44:41;;;;;;;2.75;1.02;;;;;;;17.56;40.37;100846.28;4175152;28;20056;-41
2021/05/25 06:46:41;;;;;;;1.60;0.80;;;;;;;17.57;40.55;100855.44;4175807;28;20033;-42
2021/05/25 06:48:42;;;;;;;3.92;1.17;;;;;;;17.49;40.65;100845.72;4179641;28;20060;-42
2021/05/25 06:50:42;;;;;;;4.25;1.08;;;;;;;17.61;40.53;100868.47;4159801;28;20112;-42
2021/05/25 06:52:43;;;;;;;4.00;1.20;;;;;;;17.46;40.80;100844.28;4176507;28;20075;-42
2021/05/25 06:54:44;;;;;;;5.80;1.00;;;;;;;17.32;40.71;100821.00;4177390;28;20021;-42
2021/05/25 06:56:44;;;;;;;6.10;1.13;;;;;;;17.50;40.87;100854.84;4173948;28;20035;-42
2021/05/25 06:58:45;;;;;;;6.13;1.10;;;;;;;17.61;40.76;100871.25;4153858;28;20124;-40
2021/05/25 07:00:45;;;;;;;2.95;0.88;;;;;;;17.63;40.68;100857.13;4171874;28;20036;-39
2021/05/25 07:02:45;;;;;;;6.40;1.10;;;;;;;17.62;40.82;100859.03;4179100;28;20535;-40
2021/05/25 07:04:46;;;;;;;3.38;0.95;;;;;;;17.42;40.92;100837.63;4180493;28;20033;-40
2021/05/25 07:06:46;;;;;;;5.55;1.30;;;;;;;17.59;40.87;100867.91;4175994;28;20043;-39
2021/05/25 07:08:47;;;;;;;7.45;1.48;;;;;;;17.67;40.70;100874.03;4173376;28;20035;-39
2021/05/25 07:10:47;;;;;;;5.35;1.38;;;;;;;17.57;40.68;100841.59;4177236;28;20043;-39
2021/05/25 07:12:48;;;;;;;8.00;1.50;;;;;;;17.75;40.92;100870.72;4175669;28;20033;-40
2021/05/25 07:14:48;;;;;;;4.78;1.10;;;;;;;17.79;40.64;100869.09;4179879;28;20037;-39
2021/05/25 07:16:49;;;;;;;8.45;1.55;;;;;;;17.91;40.82;100877.16;4176612;28;20029;-40
2021/05/25 07:18:49;;;;;;;5.97;1.15;;;;;;;17.84;40.71;100862.75;4178686;28;20045;-40
2021/05/25 07:20:50;;;;;;;3.15;1.30;;;;;;;17.90;40.56;100881.84;4179304;28;20040;-39
2021/05/25 07:22:53;;;;;;;5.13;1.00;;;;;;;17.93;40.88;100891.56;4178171;28;20599;-41
2021/05/25 07:24:54;;;;;;;4.63;1.33;;;;;;;17.96;40.76;100896.56;4177711;28;20033;-41
2021/05/25 07:26:54;;;;;;;5.18;1.00;;;;;;;18.00;40.65;100894.94;4178109;28;20033;-41
2021/05/25 07:28:54;;;;;;;4.03;0.93;;;;;;;18.01;40.97;100891.03;4178102;28;20379;-41
2021/05/25 07:30:55;;;;;;;5.22;1.00;;;;;;;17.95;40.80;100883.81;4177743;28;20485;-41
2021/05/25 07:32:55;;;;;;;5.20;0.80;;;;;;;18.08;41.16;100901.88;4178231;28;20033;-40
2021/05/25 07:34:56;;;;;;;4.88;1.08;;;;;;;18.08;40.82;100893.56;4176743;28;20084;-41
2021/05/25 07:36:56;;;;;;;3.53;0.80;;;;;;;18.10;41.39;100902.44;4177542;28;20095;-40
2021/05/25 07:38:57;;;;;;;5.68;0.90;;;;;;;18.12;40.89;100902.97;4176187;28;20499;-40
2021/05/25 07:40:57;;;;;;;4.35;1.48;;;;;;;18.13;41.17;100907.41;4176309;28;20033;-40
2021/05/25 07:42:58;;;;;;;2.03;0.80;;;;;;;18.15;41.29;100908.81;4178651;28;20033;-40
2021/05/25 07:44:58;;;;;;;2.70;0.80;;;;;;;18.18;40.90;100911.06;4175914;28;20029;-41
2021/05/25 07:47:00;;;;;;;3.28;0.80;;;;;;;18.20;40.92;100915.47;4178536;28;20154;-40
2021/05/25 07:49:02;;;;;;;7.13;0.80;;;;;;;18.23;41.03;100918.53;4177548;28;20075;-40
2021/05/25 07:51:04;;;;;;;3.15;1.00;;;;;;;18.24;41.03;100919.38;4177946;28;20033;-40
2021/05/25 07:53:05;;;;;;;2.75;0.77;;;;;;;18.28;41.13;100920.50;4178609;28;20729;-41
2021/05/25 07:55:06;;;;;;;2.60;0.73;;;;;;;18.30;41.13;100924.66;4171367;28;20045;-41
2021/05/25 07:57:07;;;;;;;3.42;1.15;;;;;;;18.32;40.95;100930.78;4174708;28;20035;-40
2021/05/25 07:59:07;;;;;;;3.05;0.95;;;;;;;18.33;41.29;100934.38;4179022;28;20037;-40
2021/05/25 08:01:08;;;;;;;4.72;1.20;;;;;;;18.33;40.81;100929.66;4177740;28;20028;-41
2021/05/25 08:03:10;;;;;;;6.95;1.20;;;;;;;18.36;41.08;100936.59;4176781;28;20029;-41
2021/05/25 08:05:13;;;;;;;2.78;0.80;;;;;;;18.40;40.84;100934.97;4178383;28;20039;-40
2021/05/25 08:07:13;;;;;;;4.45;1.23;;;;;;;18.43;40.96;100944.66;4175401;28;20037;-40
2021/05/25 08:09:14;;;;;;;6.65;1.30;;;;;;;18.47;40.84;100949.38;4176675;28;20864;-39
2021/05/25 08:11:14;;;;;;;4.97;1.00;;;;;;;18.49;41.09;100949.09;4178583;28;20483;-40
2021/05/25 08:13:15;;;;;;;4.55;0.98;;;;;;;18.49;41.03;100961.03;4175028;28;20025;-40
2021/05/25 08:15:17;;;;;;;6.47;1.00;;;;;;;18.53;41.19;100951.03;4177861;28;20474;-41
2021/05/25 08:17:25;;;;;;;4.32;1.10;;;;;;;18.57;40.88;100951.34;4177001;28;20032;-41
2021/05/25 08:19:28;;;;;;;4.55;1.17;;;;;;;18.58;40.82;100955.78;4174870;28;20044;-40
2021/05/25 08:21:29;;;;;;;6.30;1.20;;;;;;;18.59;40.78;100957.44;4177673;28;20119;-39
2021/05/25 08:23:30;;;;;;;7.13;1.13;;;;;;;18.65;41.09;100964.66;4177328;28;20558;-40
2021/05/25 08:25:32;;;;;;;4.03;1.00;;;;;;;18.64;41.01;100963.00;4175347;28;20029;-40
2021/05/25 08:27:32;;;;;;;2.88;1.00;;;;;;;18.64;41.07;100959.41;4177656;28;20037;-39
2021/05/25 08:29:33;;;;;;;3.88;0.80;;;;;;;18.66;41.08;100959.94;4175818;28;20045;-39
2021/05/25 08:31:33;;;;;;;2.47;0.70;;;;;;;18.68;40.78;100971.63;4173188;28;20128;-40
2021/05/25 08:33:34;;;;;;;3.08;0.80;;;;;;;18.67;41.13;100969.94;4177454;28;20044;-40
2021/05/25 08:35:35;;;;;;;4.25;1.05;;;;;;;18.70;40.93;100981.31;4175857;28;20052;-40
2021/05/25 08:37:36;;;;;;;5.28;1.10;;;;;;;18.61;41.13;100958.00;4176256;28;20033;-41
2021/05/25 08:39:36;;;;;;;2.10;1.05;;;;;;;18.71;40.97;100980.19;4176379;28;20116;-41
2021/05/25 08:41:37;;;;;;;3.42;0.80;;;;;;;18.75;41.13;100985.19;4175638;28;20021;-42
2021/05/25 08:43:37;;;;;;;3.78;0.63;;;;;;;18.76;40.99;100981.31;4175629;28;20075;-39
2021/05/25 08:45:39;;;;;;;3.35;0.65;;;;;;;18.80;41.19;100990.75;4176283;28;20348;-40
2021/05/25 08:47:41;;;;;;;3.92;0.80;;;;;;;18.83;41.37;100992.97;4173025;28;20033;-40
2021/05/25 08:49:41;;;;;;;5.22;0.70;;;;;;;18.84;41.31;101005.72;4178403;28;20035;-40
2021/05/25 08:51:42;;;;;;;3.83;0.90;;;;;;;18.81;40.61;101007.09;4177063;28;20033;-41
2021/05/25 08:53:42;;;;;;;1.35;0.70;;;;;;;18.87;41.12;101005.19;4175872;28;20032;-39
2021/05/25 08:55:47;;;;;;;2.58;0.68;;;;;;;18.88;41.31;101004.91;4176887;28;20051;-41
2021/05/25 08:57:48;;;;;;;3.35;0.85;;;;;;;18.79;41.23;100989.09;4176414;28;20067;-41
2021/05/25 08:59:49;;;;;;;3.72;0.82;;;;;;;18.93;40.88;101012.41;4174406;28;20060;-40
2021/05/25 09:01:50;;;;;;;3.90;0.80;;;;;;;18.89;41.19;101003.81;4179122;28;20033;-41
2021/05/25 09:03:56;;;;;;;2.33;0.65;;;;;;;18.78;40.86;100985.47;4173455;28;20037;-41
2021/05/25 09:06:07;;;;;;;2.70;1.10;;;;;;;18.96;40.84;101019.34;4176422;28;20032;-42
2021/05/25 09:08:07;;;;;;;4.45;1.50;;;;;;;18.93;39.99;101004.09;4174798;28;20028;-42
2021/05/25 09:10:17;;;;;;;3.63;1.33;;;;;;;19.01;39.65;101027.66;4178732;28;20044;-41
2021/05/25 09:12:18;;;;;;;3.53;1.25;;;;;;;18.99;39.68;101021.56;4175734;28;20112;-42
2021/05/25 09:14:20;;;;;;;8.25;1.63;;;;;;;18.97;40.00;101024.63;4172484;28;20071;-40
2021/05/25 09:16:21;;;;;;;3.25;1.25;;;;;;;18.97;40.00;101027.41;4172873;28;20025;-40
2021/05/25 09:18:27;;;;;;;4.32;1.20;;;;;;;18.99;40.15;101027.94;4173797;28;20036;-40
2021/05/25 09:20:56;;;;;;;8.10;1.20;;;;;;;19.03;40.27;101036.53;4172531;28;20047;-40
2021/05/25 09:22:57;;;;;;;4.65;1.38;;;;;;;18.90;40.62;101037.91;4173997;28;20058;-41
2021/05/25 09:25:04;;;;;;;6.70;1.35;;;;;;;18.82;40.78;101035.69;4175987;28;20032;-41
2021/05/25 09:27:05;;;;;;;10.05;1.55;;;;;;;18.84;41.11;101041.78;4179440;28;20091;-41